createdAt,value
2016-05-23T00:00:55.653Z,69.34
2016-05-23T00:01:55.593Z,69.5
2016-05-23T00:02:55.550Z,69.5
2016-05-23T00:03:55.598Z,69.53
2016-05-23T00:04:55.508Z,69.5
2016-05-23T00:05:55.526Z,69.53
2016-05-23T00:06:55.778Z,69.02
2016-05-23T00:07:55.484Z,69.24
2016-05-23T00:08:55.472Z,69.24
2016-05-23T00:09:55.397Z,69.15
2016-05-23T00:10:55.383Z,69.24
2016-05-23T00:11:55.511Z,69.21
2016-05-23T00:12:55.483Z,69.31
2016-05-23T00:13:55.329Z,69.02
2016-05-23T00:14:55.159Z,69.5
2016-05-23T00:15:55.490Z,69.12
2016-05-23T00:16:55.650Z,69.12
2016-05-23T00:17:55.402Z,69.12
2016-05-23T00:18:55.232Z,69.31
2016-05-23T00:19:56.502Z,69.31
2016-05-23T00:20:55.223Z,69.31
2016-05-23T00:21:55.038Z,69.31
2016-05-23T00:22:55.431Z,69.4
2016-05-23T00:23:55.028Z,69.31
2016-05-23T00:24:55.359Z,69.4
2016-05-23T00:25:55.142Z,68.92
2016-05-23T00:26:55.083Z,68.92
2016-05-23T00:27:55.053Z,68.92
2016-05-23T00:28:55.526Z,68.92
2016-05-23T00:29:55.028Z,68.92
2016-05-23T00:30:54.968Z,68.92
2016-05-23T00:31:55.003Z,69.4
2016-05-23T00:32:54.942Z,69.02
2016-05-23T00:33:54.945Z,69.21
2016-05-23T00:34:54.917Z,69.21
2016-05-23T00:35:54.888Z,68.92
2016-05-23T00:36:54.891Z,68.92
2016-05-23T00:37:54.878Z,69.02
2016-05-23T00:38:54.803Z,69.02
2016-05-23T00:39:55.164Z,69.02
2016-05-23T00:40:55.308Z,69.12
2016-05-23T00:41:54.872Z,69.5
2016-05-23T00:42:54.610Z,69.21
2016-05-23T00:43:54.785Z,69.21
2016-05-23T00:44:55.038Z,69.31
2016-05-23T00:45:54.555Z,69.5
2016-05-23T00:46:55.355Z,69.4
2016-05-23T00:47:54.702Z,69.31
2016-05-23T00:48:54.626Z,69.4
2016-05-23T00:49:54.613Z,69.31
2016-05-23T00:50:54.569Z,69.4
2016-05-23T00:51:54.572Z,69.6
2016-05-23T00:52:54.559Z,69.5
2016-05-23T00:53:54.529Z,69.31
2016-05-23T00:54:54.408Z,69.21
2016-05-23T00:55:54.504Z,69.4
2016-05-23T00:56:54.459Z,69.79
2016-05-23T00:57:54.291Z,69.5
2016-05-23T00:58:54.481Z,69.31
2016-05-23T00:59:54.406Z,69.4
2016-05-23T01:00:55.033Z,69.89
2016-05-23T01:01:54.349Z,69.79
2016-05-23T01:02:54.382Z,69.79
2016-05-23T01:03:54.338Z,69.79
2016-05-23T01:04:54.451Z,69.98
2016-05-23T01:05:54.656Z,69.98
2016-05-23T01:06:54.268Z,69.66
2016-05-23T01:07:54.317Z,69.75
2016-05-23T01:08:54.242Z,70.17
2016-05-23T01:09:54.230Z,69.98
2016-05-23T01:10:54.419Z,69.6
2016-05-23T01:11:54.188Z,69.6
2016-05-23T01:12:54.456Z,69.89
2016-05-23T01:13:54.116Z,70.14
2016-05-23T01:14:55.180Z,70.14
2016-05-23T01:15:54.089Z,70.14
2016-05-23T01:16:54.139Z,70.14
2016-05-23T01:17:54.157Z,70.14
2016-05-23T01:18:54.113Z,69.85
2016-05-23T01:19:54.803Z,70.14
2016-05-23T01:20:53.994Z,70.14
2016-05-23T01:21:54.074Z,69.95
2016-05-23T01:22:53.999Z,69.95
2016-05-23T01:23:54.001Z,69.95
2016-05-23T01:24:54.160Z,69.95
2016-05-23T01:25:53.757Z,70.04
2016-05-23T01:26:54.071Z,69.85
2016-05-23T01:27:53.857Z,70.04
2016-05-23T01:28:54.265Z,69.66
2016-05-23T01:29:54.048Z,69.95
2016-05-23T01:30:53.770Z,69.75
2016-05-23T01:31:53.601Z,70.04
2016-05-23T01:32:53.760Z,69.85
2016-05-23T01:33:53.762Z,69.95
2016-05-23T01:34:54.187Z,69.95
2016-05-23T01:35:53.971Z,69.75
2016-05-23T01:36:54.177Z,69.75
2016-05-23T01:37:53.617Z,69.66
2016-05-23T01:38:53.619Z,69.75
2016-05-23T01:39:53.623Z,69.95
2016-05-23T01:40:53.547Z,69.66
2016-05-23T01:41:53.691Z,69.75
2016-05-23T01:42:53.537Z,69.56
2016-05-23T01:43:53.508Z,69.75
2016-05-23T01:44:54.370Z,69.75
2016-05-23T01:45:53.483Z,69.66
2016-05-23T01:46:53.563Z,69.95
2016-05-23T01:47:53.425Z,69.75
2016-05-23T01:48:53.272Z,69.75
2016-05-23T01:49:53.399Z,69.75
2016-05-23T01:50:53.340Z,69.85
2016-05-23T01:51:53.218Z,69.85
2016-05-23T01:52:53.485Z,69.95
2016-05-23T01:53:53.332Z,69.75
2016-05-23T01:54:53.288Z,69.85
2016-05-23T01:55:53.322Z,69.95
2016-05-23T01:56:53.434Z,69.66
2016-05-23T01:57:53.218Z,69.75
2016-05-23T01:58:53.283Z,69.75
2016-05-23T01:59:54.239Z,69.85
2016-05-23T02:00:53.210Z,69.95
2016-05-23T02:01:53.369Z,69.56
2016-05-23T02:02:53.154Z,69.66
2016-05-23T02:03:53.218Z,69.95
2016-05-23T02:04:53.470Z,69.95
2016-05-23T02:05:53.177Z,69.95
2016-05-23T02:06:53.898Z,69.56
2016-05-23T02:07:53.103Z,69.75
2016-05-23T02:08:53.107Z,69.95
2016-05-23T02:09:53.485Z,69.95
2016-05-23T02:10:53.253Z,69.85
2016-05-23T02:11:53.084Z,70.04
2016-05-23T02:12:53.227Z,69.75
2016-05-23T02:13:52.776Z,69.95
2016-05-23T02:14:53.748Z,69.95
2016-05-23T02:15:52.844Z,70.04
2016-05-23T02:16:53.160Z,69.95
2016-05-23T02:17:52.802Z,69.95
2016-05-23T02:18:52.665Z,69.95
2016-05-23T02:19:52.746Z,69.75
2016-05-23T02:20:52.764Z,69.85
2016-05-23T02:21:53.299Z,69.75
2016-05-23T02:22:52.707Z,69.75
2016-05-23T02:23:52.679Z,69.91
2016-05-23T02:24:52.525Z,69.95
2016-05-23T02:25:53.402Z,69.85
2016-05-23T02:26:52.999Z,69.75
2016-05-23T02:27:52.783Z,70.04
2016-05-23T02:28:52.613Z,70.01
2016-05-23T02:29:53.038Z,69.91
2016-05-23T02:30:52.963Z,69.85
2016-05-23T02:31:52.575Z,70.01
2016-05-23T02:32:52.485Z,69.75
2016-05-23T02:34:06.299Z,69.75
2016-05-23T02:34:53.115Z,70.04
2016-05-23T02:35:52.429Z,69.75
2016-05-23T02:36:52.822Z,70.04
2016-05-23T02:37:52.467Z,70.01
2016-05-23T02:38:52.390Z,69.91
2016-05-23T02:39:52.972Z,69.72
2016-05-23T02:40:52.427Z,69.72
2016-05-23T02:41:52.618Z,69.72
2016-05-23T02:42:52.339Z,69.81
2016-05-23T02:43:52.279Z,69.91
2016-05-23T02:44:52.563Z,70.1
2016-05-23T02:45:52.269Z,70.01
2016-05-23T02:46:52.584Z,70.01
2016-05-23T02:47:52.461Z,69.72
2016-05-23T02:48:53.105Z,69.72
2016-05-23T02:49:52.170Z,69.72
2016-05-23T02:50:52.783Z,69.72
2016-05-23T02:51:52.379Z,69.81
2016-05-23T02:52:52.132Z,69.72
2016-05-23T02:53:52.555Z,69.62
2016-05-23T02:54:52.402Z,69.72
2016-05-23T02:55:51.874Z,69.72
2016-05-23T02:56:52.939Z,69.62
2016-05-23T02:57:51.989Z,69.72
2016-05-23T02:58:51.944Z,69.81
2016-05-23T02:59:53.603Z,69.72
2016-05-23T03:00:51.949Z,69.72
2016-05-23T03:01:51.906Z,69.72
2016-05-23T03:02:52.080Z,69.53
2016-05-23T03:03:52.192Z,69.81
2016-05-23T03:04:51.867Z,69.72
2016-05-23T03:05:52.525Z,69.53
2016-05-23T03:06:53.075Z,69.62
2016-05-23T03:07:53.797Z,69.53
2016-05-23T03:08:52.268Z,69.72
2016-05-23T03:09:53.286Z,69.72
2016-05-23T03:10:51.695Z,69.62
2016-05-23T03:11:52.433Z,69.81
2016-05-23T03:12:52.139Z,69.81
2016-05-23T03:13:51.672Z,69.62
2016-05-23T03:14:52.769Z,69.72
2016-05-23T03:15:51.647Z,69.62
2016-05-23T03:16:52.040Z,69.62
2016-05-23T03:17:51.605Z,69.62
2016-05-23T03:18:51.560Z,69.62
2016-05-23T03:19:51.564Z,69.62
2016-05-23T03:20:51.597Z,69.72
2016-05-23T03:21:51.538Z,69.81
2016-05-23T03:22:51.478Z,69.81
2016-05-23T03:23:51.496Z,69.81
2016-05-23T03:24:51.639Z,69.81
2016-05-23T03:25:51.424Z,69.72
2016-05-23T03:26:51.395Z,69.72
2016-05-23T03:27:51.538Z,69.62
2016-05-23T03:28:51.368Z,69.81
2016-05-23T03:29:51.340Z,69.72
2016-05-23T03:30:51.374Z,69.81
2016-05-23T03:31:51.424Z,70.1
2016-05-23T03:32:52.082Z,69.81
2016-05-23T03:33:51.507Z,70.1
2016-05-23T03:34:51.259Z,69.72
2016-05-23T03:35:51.201Z,70.1
2016-05-23T03:36:51.218Z,70.29
2016-05-23T03:37:51.174Z,69.91
2016-05-23T03:38:51.145Z,69.62
2016-05-23T03:39:51.164Z,69.81
2016-05-23T03:40:51.151Z,69.72
2016-05-23T03:41:51.092Z,69.62
2016-05-23T03:42:51.078Z,69.72
2016-05-23T03:43:51.128Z,70.1
2016-05-23T03:44:51.756Z,69.72
2016-05-23T03:45:51.117Z,70.29
2016-05-23T03:46:51.214Z,69.81
2016-05-23T03:47:51.732Z,69.72
2016-05-23T03:48:50.970Z,69.91
2016-05-23T03:49:50.956Z,69.72
2016-05-23T03:50:50.819Z,69.81
2016-05-23T03:51:51.056Z,70.1
2016-05-23T03:52:50.668Z,69.91
2016-05-23T03:53:51.171Z,69.72
2016-05-23T03:54:50.814Z,69.81
2016-05-23T03:55:50.833Z,69.91
2016-05-23T03:56:50.788Z,69.81
2016-05-23T03:57:50.728Z,69.91
2016-05-23T03:58:50.715Z,70.1
2016-05-23T03:59:50.718Z,70.1
2016-05-23T04:00:50.736Z,69.81
2016-05-23T04:01:50.692Z,70.01
2016-05-23T04:02:50.663Z,69.91
2016-05-23T04:03:50.666Z,70.2
2016-05-23T04:04:50.638Z,69.91
2016-05-23T04:05:50.999Z,70.2
2016-05-23T04:06:50.581Z,70.01
2016-05-23T04:07:50.865Z,69.91
2016-05-23T04:08:50.540Z,70.01
2016-05-23T04:09:50.526Z,70.01
2016-05-23T04:10:50.482Z,69.91
2016-05-23T04:11:50.484Z,70.2
2016-05-23T04:12:50.456Z,69.91
2016-05-23T04:13:51.287Z,70.29
2016-05-23T04:14:50.415Z,69.81
2016-05-23T04:15:50.386Z,69.91
2016-05-23T04:16:50.358Z,70.49
2016-05-23T04:17:50.329Z,70.1
2016-05-23T04:18:50.378Z,70.01
2016-05-23T04:19:50.491Z,69.81
2016-05-23T04:20:50.478Z,69.91
2016-05-23T04:21:50.292Z,69.91
2016-05-23T04:22:50.249Z,69.91
2016-05-23T04:23:50.080Z,70.1
2016-05-23T04:24:50.300Z,69.91
2016-05-23T04:25:50.257Z,70.01
2016-05-23T04:26:50.197Z,70.2
2016-05-23T04:27:50.169Z,70.29
2016-05-23T04:28:50.218Z,70.1
2016-05-23T04:29:50.111Z,70.2
2016-05-23T04:30:50.488Z,70.1
2016-05-23T04:31:50.054Z,69.81
2016-05-23T04:32:50.071Z,69.81
2016-05-23T04:33:50.403Z,69.91
2016-05-23T04:34:50.015Z,69.81
2016-05-23T04:35:50.034Z,69.72
2016-05-23T04:36:50.021Z,70.1
2016-05-23T04:37:50.101Z,69.72
2016-05-23T04:38:50.776Z,69.91
2016-05-23T04:39:49.920Z,69.62
2016-05-23T04:40:49.890Z,69.72
2016-05-23T04:41:50.503Z,69.75
2016-05-23T04:42:49.709Z,69.62
2016-05-23T04:43:49.977Z,69.62
2016-05-23T04:44:50.011Z,69.72
2016-05-23T04:45:49.826Z,69.62
2016-05-23T04:46:49.626Z,69.81
2016-05-23T04:47:49.706Z,69.72
2016-05-23T04:48:50.147Z,70.29
2016-05-23T04:49:49.712Z,69.72
2016-05-23T04:50:49.684Z,69.81
2016-05-23T04:51:49.671Z,70.1
2016-05-23T04:52:49.610Z,70.49
2016-05-23T04:53:49.598Z,70.39
2016-05-23T04:54:49.647Z,70.29
2016-05-23T04:55:49.431Z,70.49
2016-05-23T04:56:49.559Z,70.29
2016-05-23T04:57:49.547Z,70.2
2016-05-23T04:58:49.517Z,70.29
2016-05-23T04:59:49.769Z,70.39
2016-05-23T05:00:49.492Z,70.39
2016-05-23T05:01:49.479Z,70.29
2016-05-23T05:02:49.388Z,70.29
2016-05-23T05:03:49.390Z,70.39
2016-05-23T05:04:49.393Z,70.29
2016-05-23T05:05:49.365Z,70.29
2016-05-23T05:06:49.321Z,70.39
2016-05-23T05:07:49.323Z,70.39
2016-05-23T05:08:49.357Z,70.01
2016-05-23T05:09:49.313Z,70.58
2016-05-23T05:10:49.268Z,70.01
2016-05-23T05:11:49.240Z,70.39
2016-05-23T05:12:49.243Z,70.58
2016-05-23T05:13:49.307Z,70.1
2016-05-23T05:14:49.389Z,70.1
2016-05-23T05:15:49.609Z,70.1
2016-05-23T05:16:49.145Z,70.1
2016-05-23T05:18:49.071Z,70.39
2016-05-23T05:19:49.089Z,70.1
2016-05-23T05:20:49.093Z,70.1
2016-05-23T05:21:49.361Z,70.29
2016-05-23T05:22:49.035Z,70.1
2016-05-23T05:23:48.976Z,70.1
2016-05-23T05:24:48.947Z,70.1
2016-05-23T05:25:49.324Z,70.1
2016-05-23T05:26:48.953Z,70.1
2016-05-23T05:27:48.955Z,70.1
2016-05-23T05:28:49.036Z,70.2
2016-05-23T05:29:48.773Z,70.2
2016-05-23T05:30:48.947Z,70.1
2016-05-23T05:31:48.966Z,70.2
2016-05-23T05:32:48.843Z,70.1
2016-05-23T05:33:48.799Z,70.29
2016-05-23T05:34:48.755Z,70.1
2016-05-23T05:35:48.821Z,70.39
2016-05-23T05:36:48.744Z,70.1
2016-05-23T05:37:48.669Z,70.29
2016-05-23T05:38:48.657Z,70.2
2016-05-23T05:39:48.675Z,70.29
2016-05-23T05:40:48.677Z,70.2
2016-05-23T05:41:48.946Z,70.2
2016-05-23T05:42:48.652Z,70.39
2016-05-23T05:43:48.576Z,70.39
2016-05-23T05:44:48.845Z,69.91
2016-05-23T05:45:48.659Z,70.01
2016-05-23T05:46:48.521Z,70.39
2016-05-23T05:47:48.462Z,70.29
2016-05-23T05:48:48.480Z,70.29
2016-05-23T05:49:48.311Z,70.39
2016-05-23T05:50:48.329Z,70.1
2016-05-23T05:51:48.489Z,70.29
2016-05-23T05:52:48.725Z,70.29
2016-05-23T05:53:48.384Z,70.2
2016-05-23T05:54:48.543Z,70.2
2016-05-23T05:55:48.374Z,70.2
2016-05-23T05:56:48.642Z,70.49
2016-05-23T05:57:48.317Z,70.39
2016-05-23T05:58:48.695Z,70.2
2016-05-23T05:59:51.478Z,70.39
2016-05-23T06:00:48.216Z,70.58
2016-05-23T06:01:48.047Z,70.29
2016-05-23T06:02:48.206Z,70.39
2016-05-23T06:03:48.552Z,70.39
2016-05-23T06:04:48.133Z,70.49
2016-05-23T06:05:48.167Z,70.49
2016-05-23T06:06:48.091Z,70.29
2016-05-23T06:07:48.124Z,70.39
2016-05-23T06:08:47.971Z,70.39
2016-05-23T06:09:48.287Z,70.49
2016-05-23T06:10:47.883Z,70.49
2016-05-23T06:11:47.995Z,70.39
2016-05-23T06:12:47.998Z,70.49
2016-05-23T06:13:48.015Z,70.49
2016-05-23T06:14:47.941Z,70.2
2016-05-23T06:15:47.959Z,70.49
2016-05-23T06:16:47.915Z,70.39
2016-05-23T06:17:47.809Z,70.39
2016-05-23T06:18:47.874Z,70.39
2016-05-23T06:19:47.860Z,70.49
2016-05-23T06:20:48.176Z,70.58
2016-05-23T06:21:47.804Z,70.49
2016-05-23T06:22:47.790Z,70.29
2016-05-23T06:23:47.714Z,70.29
2016-05-23T06:24:47.795Z,70.39
2016-05-23T06:25:47.767Z,70.29
2016-05-23T06:26:47.958Z,70.29
2016-05-23T06:27:47.710Z,70.29
2016-05-23T06:28:47.666Z,70.49
2016-05-23T06:29:47.466Z,70.49
2016-05-23T06:30:47.672Z,70.49
2016-05-23T06:31:47.611Z,70.58
2016-05-23T06:32:47.567Z,70.78
2016-05-23T06:33:47.539Z,70.58
2016-05-23T06:34:47.745Z,70.58
2016-05-23T06:35:47.732Z,70.58
2016-05-23T06:36:47.594Z,70.78
2016-05-23T06:37:47.784Z,70.29
2016-05-23T06:38:47.444Z,70.55
2016-05-23T06:39:48.445Z,70.49
2016-05-23T06:40:47.949Z,70.74
2016-05-23T06:41:47.779Z,70.84
2016-05-23T06:42:47.532Z,70.84
2016-05-23T06:43:47.331Z,70.93
2016-05-23T06:44:47.490Z,71.12
2016-05-23T06:45:48.337Z,71.41
2016-05-23T06:46:47.308Z,71.03
2016-05-23T06:47:47.358Z,71.31
2016-05-23T06:48:47.543Z,71.22
2016-05-23T06:49:47.883Z,71.61
2016-05-23T06:50:47.349Z,70.93
2016-05-23T06:51:47.361Z,70.93
2016-05-23T06:52:47.530Z,71.12
2016-05-23T06:53:47.603Z,71.03
2016-05-23T06:54:47.709Z,71.51
2016-05-23T06:55:47.268Z,71.51
2016-05-23T06:56:47.796Z,71.22
2016-05-23T06:57:47.229Z,71.41
2016-05-23T06:58:47.220Z,71.12
2016-05-23T06:59:47.756Z,71.12
2016-05-23T07:00:47.575Z,71.22
2016-05-23T07:01:47.158Z,71.41
2016-05-23T07:02:47.133Z,71.41
2016-05-23T07:03:47.247Z,71.31
2016-05-23T07:04:47.188Z,71.03
2016-05-23T07:05:47.129Z,71.31
2016-05-23T07:06:47.179Z,71.22
2016-05-23T07:07:47.418Z,71.41
2016-05-23T07:08:47.015Z,71.03
2016-05-23T07:09:47.002Z,71.03
2016-05-23T07:10:47.037Z,71.12
2016-05-23T07:11:46.945Z,71.12
2016-05-23T07:12:47.277Z,71.03
2016-05-23T07:13:47.218Z,71.03
2016-05-23T07:14:46.955Z,71.31
2016-05-23T07:15:46.864Z,71.22
2016-05-23T07:16:46.852Z,71.31
2016-05-23T07:17:46.668Z,70.93
2016-05-23T07:18:46.795Z,70.84
2016-05-23T07:19:46.610Z,71.31
2016-05-23T07:20:46.894Z,71.22
2016-05-23T07:21:46.788Z,71.31
2016-05-23T07:22:46.947Z,71.12
2016-05-23T07:23:46.684Z,71.12
2016-05-23T07:24:46.905Z,70.93
2016-05-23T07:25:46.860Z,71.31
2016-05-23T07:26:46.676Z,71.31
2016-05-23T07:27:46.662Z,71.41
2016-05-23T07:28:46.603Z,71.51
2016-05-23T07:29:46.450Z,71.31
2016-05-23T07:30:46.578Z,70.55
2016-05-23T07:31:46.533Z,71.03
2016-05-23T07:32:47.192Z,70.84
2016-05-23T07:33:46.960Z,70.74
2016-05-23T07:34:46.510Z,70.74
2016-05-23T07:35:46.497Z,71.03
2016-05-23T07:36:46.406Z,71.22
2016-05-23T07:37:46.378Z,71.12
2016-05-23T07:38:46.443Z,71.22
2016-05-23T07:39:46.789Z,71.12
2016-05-23T07:40:46.183Z,71.41
2016-05-23T07:41:46.278Z,71.51
2016-05-23T07:42:46.172Z,71.41
2016-05-23T07:43:46.877Z,71.12
2016-05-23T07:44:46.600Z,71.22
2016-05-23T07:45:46.196Z,71.22
2016-05-23T07:46:46.526Z,71.22
2016-05-23T07:47:46.169Z,71.22
2016-05-23T07:48:46.235Z,70.93
2016-05-23T07:49:46.518Z,71.37
2016-05-23T07:50:46.147Z,71.28
2016-05-23T07:51:46.180Z,70.93
2016-05-23T07:52:46.496Z,71.09
2016-05-23T07:53:46.170Z,70.93
2016-05-23T07:54:46.392Z,70.9
2016-05-23T07:55:46.363Z,70.8
2016-05-23T07:56:46.226Z,71.22
2016-05-23T07:57:45.821Z,70.99
2016-05-23T07:58:45.996Z,70.99
2016-05-23T07:59:45.951Z,71.37
2016-05-23T08:00:46.784Z,71.28
2016-05-23T08:01:45.895Z,71.41
2016-05-23T08:02:46.210Z,71.37
2016-05-23T08:03:45.884Z,70.9
2016-05-23T08:04:45.965Z,71.12
2016-05-23T08:05:45.812Z,70.9
2016-05-23T08:06:45.909Z,71.09
2016-05-23T08:07:46.036Z,70.7
2016-05-23T08:08:45.836Z,70.64
2016-05-23T08:09:45.933Z,70.26
2016-05-23T08:10:45.904Z,70.74
2016-05-23T08:11:46.031Z,70.26
2016-05-23T08:12:45.675Z,70.64
2016-05-23T08:13:45.912Z,70.26
2016-05-23T08:14:45.867Z,70.64
2016-05-23T08:15:45.588Z,70.74
2016-05-23T08:16:45.591Z,70.7
2016-05-23T08:17:46.032Z,70.64
2016-05-23T08:18:45.550Z,70.74
2016-05-23T08:19:45.522Z,70.74
2016-05-23T08:21:45.886Z,70.7
2016-05-23T08:22:45.326Z,71.12
2016-05-23T08:23:45.798Z,71.03
2016-05-23T08:24:45.784Z,70.84
2016-05-23T08:25:45.491Z,70.84
2016-05-23T08:26:45.368Z,70.74
2016-05-23T08:27:45.371Z,70.93
2016-05-23T08:28:45.326Z,70.93
2016-05-23T08:29:45.626Z,70.84
2016-05-23T08:30:45.489Z,70.74
2016-05-23T08:31:45.304Z,70.93
2016-05-23T08:32:45.134Z,70.74
2016-05-23T08:33:45.622Z,70.74
2016-05-23T08:34:45.406Z,70.74
2016-05-23T08:35:58.909Z,70.64
2016-05-23T08:36:45.208Z,70.8
2016-05-23T08:37:45.336Z,70.64
2016-05-23T08:38:45.182Z,70.61
2016-05-23T08:39:45.309Z,70.26
2016-05-23T08:40:58.844Z,70.7
2016-05-23T08:41:45.455Z,70.8
2016-05-23T08:42:44.927Z,70.61
2016-05-23T08:43:45.024Z,70.74
2016-05-23T08:44:45.027Z,70.51
2016-05-23T08:46:45.063Z,70.26
2016-05-23T08:47:45.253Z,70.64
2016-05-23T08:48:44.959Z,70.42
2016-05-23T08:49:45.055Z,70.23
2016-05-23T08:50:44.807Z,70.36
2016-05-23T08:51:45.045Z,70.45
2016-05-23T08:53:44.785Z,70.45
2016-05-23T08:54:44.788Z,70.36
2016-05-23T08:55:44.838Z,70.45
2016-05-23T08:56:44.934Z,69.87
2016-05-23T08:57:44.608Z,70.26
2016-05-23T08:58:44.704Z,70.36
2016-05-23T08:59:44.879Z,70.36
2016-05-23T09:00:45.148Z,70.36
2016-05-23T09:01:44.650Z,70.26
2016-05-23T09:02:44.621Z,69.87
2016-05-23T09:03:44.609Z,69.87
2016-05-23T09:04:45.065Z,70.07
2016-05-23T09:05:44.567Z,70.36
2016-05-23T09:06:47.617Z,70.45
2016-05-23T09:07:44.667Z,70.17
2016-05-23T09:08:44.700Z,69.78
2016-05-23T09:09:44.469Z,69.68
2016-05-23T09:10:58.189Z,70.17
2016-05-23T09:11:44.364Z,69.68
2016-05-23T09:12:44.367Z,69.59
2016-05-23T09:13:44.417Z,69.78
2016-05-23T09:14:44.951Z,70.01
2016-05-23T09:15:44.328Z,70.36
2016-05-23T09:16:44.331Z,70.39
2016-05-23T09:17:44.256Z,70.55
2016-05-23T09:18:44.525Z,70.07
2016-05-23T09:19:44.261Z,70.45
2016-05-23T09:20:44.264Z,70.45
2016-05-23T09:21:44.376Z,69.97
2016-05-23T09:22:46.144Z,69.78
2016-05-23T09:23:57.912Z,69.78
2016-05-23T09:24:44.368Z,69.87
2016-05-23T09:25:44.199Z,69.49
2016-05-23T09:26:44.702Z,70.1
2016-05-23T09:27:44.157Z,70.07
2016-05-23T09:28:44.285Z,69.4
2016-05-23T09:29:44.226Z,69.2
2016-05-23T09:30:44.525Z,69.24
2016-05-23T09:31:44.543Z,69.34
2016-05-23T09:32:44.031Z,69.4
2016-05-23T09:33:43.970Z,68.82
2016-05-23T09:34:43.739Z,69.3
2016-05-23T09:35:44.382Z,69.68
2016-05-23T09:36:43.869Z,70.07
2016-05-23T09:37:44.419Z,69.59
2016-05-23T09:38:43.843Z,69.87
2016-05-23T09:39:43.799Z,69.68
2016-05-23T09:40:43.958Z,70.26
2016-05-23T09:41:43.773Z,69.87
2016-05-23T09:42:43.776Z,69.68
2016-05-23T09:43:43.732Z,69.49
2016-05-23T09:44:43.781Z,69.87
2016-05-23T09:45:43.722Z,69.78
2016-05-23T09:46:43.833Z,69.97
2016-05-23T09:47:43.493Z,69.11
2016-05-23T09:48:43.730Z,69.01
2016-05-23T09:49:43.685Z,69.4
2016-05-23T09:50:43.579Z,69.2
2016-05-23T09:51:43.566Z,69.01
2016-05-23T09:52:43.756Z,69.11
2016-05-23T09:53:43.868Z,69.2
2016-05-23T09:54:43.527Z,69.11
2016-05-23T09:55:43.483Z,69.11
2016-05-23T09:56:43.595Z,68.76
2016-05-23T09:57:43.660Z,68.85
2016-05-23T09:58:44.241Z,69.05
2016-05-23T09:59:44.604Z,68.85
2016-05-23T10:00:43.371Z,68.76
2016-05-23T10:01:43.905Z,68.37
2016-05-23T10:02:43.393Z,68.08
2016-05-23T10:03:43.365Z,68.18
2016-05-23T10:04:43.867Z,68.47
2016-05-23T10:05:43.291Z,68.28
2016-05-23T10:06:43.559Z,68.28
2016-05-23T10:08:43.236Z,68.37
2016-05-23T10:09:43.505Z,68.41
2016-05-23T10:10:43.054Z,68.31
2016-05-23T10:11:43.151Z,68.18
2016-05-23T10:12:43.138Z,68.66
2016-05-23T10:13:43.781Z,67.99
2016-05-23T10:14:43.659Z,68.18
2016-05-23T10:15:43.334Z,68.08
2016-05-23T10:16:43.149Z,67.99
2016-05-23T10:17:43.244Z,68.18
2016-05-23T10:18:43.280Z,68.37
2016-05-23T10:19:43.032Z,68.08
2016-05-23T10:20:42.816Z,68.57
2016-05-23T10:21:43.021Z,68.85
2016-05-23T10:22:43.430Z,68.85
2016-05-23T10:23:42.793Z,68.66
2016-05-23T10:24:42.905Z,68.66
2016-05-23T10:25:42.938Z,68.76
2016-05-23T10:26:42.832Z,68.57
2016-05-23T10:27:42.850Z,68.18
2016-05-23T10:28:43.275Z,67.99
2016-05-23T10:29:43.090Z,68.37
2016-05-23T10:30:42.780Z,68.18
2016-05-23T10:31:42.736Z,68.18
2016-05-23T10:32:42.739Z,68.18
2016-05-23T10:33:57.881Z,68.08
2016-05-23T10:34:44.400Z,68.37
2016-05-23T10:35:43.043Z,68.28
2016-05-23T10:36:42.640Z,68.47
2016-05-23T10:37:42.642Z,68.18
2016-05-23T10:38:42.598Z,68.08
2016-05-23T10:39:42.726Z,67.99
2016-05-23T10:40:42.557Z,68.18
2016-05-23T10:41:42.512Z,68.28
2016-05-23T10:42:43.000Z,68.18
2016-05-23T10:43:42.814Z,68.47
2016-05-23T10:44:42.333Z,68.37
2016-05-23T10:45:42.352Z,68.66
2016-05-23T10:46:42.433Z,68.37
2016-05-23T10:47:42.810Z,67.9
2016-05-23T10:48:42.641Z,68.28
2016-05-23T10:49:43.253Z,68.08
2016-05-23T10:50:42.506Z,68.18
2016-05-23T10:51:42.399Z,68.28
2016-05-23T10:52:42.433Z,68.08
2016-05-23T10:53:42.389Z,67.9
2016-05-23T11:15:05.742Z,67.32
2016-05-23T11:15:51.354Z,67.8
2016-05-23T11:16:51.389Z,67.61
2016-05-23T11:17:51.298Z,68.37
2016-05-23T11:18:51.550Z,67.8
2016-05-23T11:19:51.490Z,68.47
2016-05-23T11:20:51.196Z,68.18
2016-05-23T11:21:51.464Z,68.18
2016-05-23T11:22:51.170Z,68.47
2016-05-23T11:23:51.000Z,68.28
2016-05-23T11:24:51.160Z,68.37
2016-05-23T11:25:51.194Z,67.99
2016-05-23T11:26:51.213Z,68.08
2016-05-23T11:27:51.261Z,68.08
2016-05-23T11:28:51.186Z,68.37
2016-05-23T11:29:51.330Z,67.9
2016-05-23T11:30:51.207Z,68.18
2016-05-23T11:31:51.647Z,68.05
2016-05-23T11:32:51.010Z,67.76
2016-05-23T11:33:51.107Z,68.28
2016-05-23T11:34:51.046Z,67.86
2016-05-23T11:35:50.908Z,68.05
2016-05-23T11:36:51.255Z,68.05
2016-05-23T11:37:51.085Z,67.51
2016-05-23T11:38:50.713Z,67.9
2016-05-23T11:39:50.700Z,67.61
2016-05-23T11:40:50.781Z,68.47
2016-05-23T11:41:51.096Z,67.99
2016-05-23T11:42:50.786Z,68.24
2016-05-23T11:43:51.133Z,68.28
2016-05-23T11:44:50.901Z,68.05
2016-05-23T11:45:53.622Z,68.15
2016-05-23T11:46:50.672Z,67.47
2016-05-23T11:47:50.644Z,67.8
2016-05-23T11:48:50.661Z,67.61
2016-05-23T11:49:50.649Z,67.61
2016-05-23T11:50:50.636Z,67.61
2016-05-23T11:51:50.608Z,67.38
2016-05-23T11:52:50.611Z,67.61
2016-05-23T11:53:50.488Z,67.61
2016-05-23T11:54:50.600Z,67.61
2016-05-23T11:55:50.727Z,67.22
2016-05-23T11:56:50.480Z,67.22
2016-05-23T11:57:50.483Z,67.13
2016-05-23T11:58:54.033Z,67.51
2016-05-23T11:59:51.052Z,67.32
2016-05-23T12:00:50.584Z,67.03
2016-05-23T12:01:50.509Z,67.13
2016-05-23T12:02:50.559Z,67.32
2016-05-23T12:03:50.593Z,68.08
2016-05-23T12:04:51.190Z,67.61
2016-05-23T12:05:50.896Z,67.61
2016-05-23T12:06:53.835Z,67.7
2016-05-23T12:07:50.198Z,67.61
2016-05-23T12:08:50.294Z,67.7
2016-05-23T12:09:50.188Z,67.51
2016-05-23T12:10:50.190Z,67.51
2016-05-23T12:11:50.192Z,67.7
2016-05-23T12:12:50.148Z,67.51
2016-05-23T12:13:50.260Z,67.7
2016-05-23T12:14:50.232Z,67.32
2016-05-23T12:15:50.094Z,67.32
2016-05-23T12:16:50.268Z,67.03
2016-05-23T12:17:50.052Z,67.8
2016-05-23T12:18:50.102Z,67.7
2016-05-23T12:19:49.886Z,67.9
2016-05-23T12:20:49.826Z,67.7
2016-05-23T12:21:50.314Z,67.9
2016-05-23T12:22:49.988Z,67.61
2016-05-23T12:23:49.944Z,67.61
2016-05-23T12:24:49.914Z,67.7
2016-05-23T12:25:49.886Z,67.32
2016-05-23T12:26:49.874Z,67.22
2016-05-23T12:27:50.033Z,67.03
2016-05-23T12:28:49.800Z,67.61
2016-05-23T12:29:49.694Z,67.41
2016-05-23T12:30:49.885Z,66.84
2016-05-23T12:31:49.605Z,67.22
2016-05-23T12:32:49.718Z,67.51
2016-05-23T12:34:49.895Z,67.22
2016-05-23T12:35:49.663Z,67.32
2016-05-23T12:36:50.088Z,67.32
2016-05-23T12:37:49.700Z,67.22
2016-05-23T12:38:49.609Z,67.7
2016-05-23T12:39:49.720Z,66.64
2016-05-23T12:40:49.692Z,66.64
2016-05-23T12:41:49.710Z,66.55
2016-05-23T12:42:49.604Z,66.93
2016-05-23T12:43:49.888Z,66.93
2016-05-23T12:44:50.172Z,66.93
2016-05-23T12:45:49.456Z,67.51
2016-05-23T12:46:50.224Z,67.51
2016-05-23T12:47:49.493Z,67.8
2016-05-23T12:48:49.495Z,67.61
2016-05-23T12:49:49.403Z,67.51
2016-05-23T12:50:49.454Z,67.51
2016-05-23T12:51:49.347Z,67.13
2016-05-23T12:52:49.334Z,67.13
2016-05-23T12:53:49.478Z,67.03
2016-05-23T12:54:49.495Z,67.32
2016-05-23T12:55:49.326Z,67.32
2016-05-23T12:56:49.204Z,67.41
2016-05-23T12:57:49.191Z,67.22
2016-05-23T12:58:49.038Z,67.32
2016-05-23T12:59:49.446Z,67.32
2016-05-23T13:00:49.261Z,67.61
2016-05-23T13:01:49.155Z,67.22
2016-05-23T13:02:49.142Z,67.22
2016-05-23T13:03:49.269Z,66.93
2016-05-23T13:04:49.288Z,67.03
2016-05-23T13:05:49.104Z,67.35
2016-05-23T13:06:49.106Z,67.22
2016-05-23T13:07:48.921Z,66.97
2016-05-23T13:08:49.002Z,67.16
2016-05-23T13:09:48.818Z,67.22
2016-05-23T13:10:48.929Z,66.93
2016-05-23T13:11:48.760Z,67.13
2016-05-23T13:12:49.606Z,67.22
2016-05-23T13:13:49.203Z,67.03
2016-05-23T13:14:49.298Z,66.84
2016-05-23T13:15:48.943Z,66.93
2016-05-23T13:16:48.851Z,66.68
2016-05-23T13:17:48.964Z,66.68
2016-05-23T13:18:48.889Z,66.49
2016-05-23T13:19:48.797Z,66.49
2016-05-23T13:20:49.440Z,66.87
2016-05-23T13:21:48.725Z,66.87
2016-05-23T13:22:48.680Z,67.74